createdAt,value
2019-05-22T00:01:28.877Z,9.57
2019-05-22T00:06:39.373Z,9.51
2019-05-22T00:11:46.054Z,9.47
2019-05-22T00:16:51.401Z,9.55
2019-05-22T00:22:03.024Z,9.45
2019-05-22T00:27:09.523Z,9.27
2019-05-22T00:32:16.330Z,9.29
2019-05-22T00:37:21.023Z,9.47
2019-05-22T00:42:27.451Z,9.54
2019-05-22T00:47:33.915Z,9.73
2019-05-22T00:52:47.067Z,9.98
2019-05-22T00:58:04.698Z,10.16
2019-05-22T01:03:16.543Z,10.49
2019-05-22T01:08:24.338Z,10.66
2019-05-22T01:13:33.198Z,10.71
2019-05-22T01:18:39.230Z,10.78
2019-05-22T01:23:46.098Z,10.83
2019-05-22T01:28:51.241Z,10.77
2019-05-22T01:34:02.618Z,10.65
2019-05-22T01:39:24.228Z,10.60
2019-05-22T01:44:30.339Z,10.56
2019-05-22T01:49:38.880Z,10.63
2019-05-22T01:54:45.475Z,10.52
2019-05-22T01:59:51.588Z,10.20
2019-05-22T02:04:58.367Z,10.04
2019-05-22T02:10:04.195Z,9.97
2019-05-22T02:15:11.063Z,10.15
2019-05-22T02:20:17.878Z,10.24
2019-05-22T02:25:24.324Z,10.27
2019-05-22T02:30:30.882Z,10.68
2019-05-22T02:35:37.006Z,10.26
2019-05-22T02:40:44.191Z,10.26
2019-05-22T02:45:49.915Z,10.37
2019-05-22T02:50:54.979Z,10.32
2019-05-22T02:56:00.288Z,10.18
2019-05-22T03:01:06.553Z,10.32
2019-05-22T03:06:13.886Z,10.32
2019-05-22T03:11:18.943Z,10.33
2019-05-22T03:16:26.604Z,10.07
2019-05-22T03:21:31.472Z,10.11
2019-05-22T03:26:48.302Z,9.80
2019-05-22T03:31:54.008Z,9.66
2019-05-22T03:36:59.029Z,9.50
2019-05-22T03:42:04.448Z,9.61
2019-05-22T03:47:11.303Z,9.57
2019-05-22T03:52:17.316Z,9.35
2019-05-22T03:57:23.024Z,9.33
2019-05-22T04:02:28.663Z,9.16
2019-05-22T04:07:34.954Z,9.25
2019-05-22T04:12:40.308Z,9.45
2019-05-22T04:17:48.141Z,9.47
2019-05-22T04:22:58.041Z,9.58
2019-05-22T04:28:02.817Z,9.65
2019-05-22T04:33:08.291Z,9.66
2019-05-22T04:38:13.328Z,9.66
2019-05-22T04:43:21.387Z,9.59
2019-05-22T04:48:29.459Z,9.42
2019-05-22T04:53:34.365Z,9.48
2019-05-22T04:58:39.629Z,9.52
2019-05-22T05:03:44.338Z,9.72
2019-05-22T05:08:49.649Z,9.76
2019-05-22T05:13:54.957Z,9.84
2019-05-22T05:19:00.859Z,9.90
2019-05-22T05:24:05.771Z,9.74
2019-05-22T05:29:22.263Z,9.83
2019-05-22T05:34:36.915Z,9.79
2019-05-22T05:40:19.577Z,10.11
2019-05-22T05:45:25.031Z,10.40
2019-05-22T05:50:39.409Z,10.50
2019-05-22T05:55:53.308Z,10.93
2019-05-22T06:01:03.098Z,11.39
2019-05-22T06:06:25.214Z,11.74
2019-05-22T06:11:49.482Z,12.01
2019-05-22T06:17:12.491Z,12.06
2019-05-22T06:22:17.387Z,12.31
2019-05-22T06:27:30.773Z,12.55
2019-05-22T06:33:03.254Z,12.69
2019-05-22T06:38:20.759Z,12.91
2019-05-22T06:43:53.324Z,13.33
2019-05-22T06:49:02.243Z,13.72
2019-05-22T06:54:07.104Z,14.05
2019-05-22T06:59:13.031Z,14.59
2019-05-22T07:04:18.795Z,15.05
2019-05-22T07:09:24.692Z,15.40
2019-05-22T07:14:31.762Z,14.85
2019-05-22T07:19:37.246Z,14.61
2019-05-22T07:24:42.170Z,14.44
2019-05-22T07:29:47.083Z,14.59
2019-05-22T07:34:52.376Z,14.90
2019-05-22T07:39:57.504Z,15.17
2019-05-22T07:45:02.500Z,15.44
2019-05-22T07:50:07.940Z,15.50
2019-05-22T07:55:14.882Z,15.44
2019-05-22T08:00:21.822Z,15.55
2019-05-22T08:05:28.389Z,15.51
2019-05-22T08:10:34.729Z,14.92
2019-05-22T08:15:39.899Z,15.04
2019-05-22T08:20:45.185Z,15.13
2019-05-22T08:25:50.221Z,15.26
2019-05-22T08:30:55.703Z,15.60
2019-05-22T08:36:01.431Z,15.91
2019-05-22T08:41:10.041Z,16.24
2019-05-22T08:46:15.021Z,16.40
2019-05-22T08:51:20.148Z,16.88
2019-05-22T08:56:25.619Z,17.48
2019-05-22T09:01:32.159Z,18.54
2019-05-22T09:06:37.221Z,20.42
2019-05-22T09:11:42.042Z,22.37
2019-05-22T09:16:47.821Z,24.28
2019-05-22T09:21:52.801Z,24.71
2019-05-22T09:26:58.023Z,25.66
2019-05-22T09:32:04.065Z,25.80
2019-05-22T09:37:09.718Z,26.31
2019-05-22T09:42:15.487Z,26.20
2019-05-22T09:47:25.571Z,26.76
2019-05-22T09:52:31.551Z,27.22
2019-05-22T09:57:36.823Z,27.11
2019-05-22T10:02:42.323Z,26.76
2019-05-22T10:07:59.254Z,26.74
2019-05-22T10:12:55.143Z,26.79
2019-05-22T10:18:01.074Z,26.70
2019-05-22T10:23:15.315Z,26.94
2019-05-22T10:28:15.730Z,24.71
2019-05-22T10:33:20.599Z,25.64
2019-05-22T10:38:25.730Z,26.10
2019-05-22T10:43:31.960Z,25.96
2019-05-22T10:48:40.214Z,25.71
2019-05-22T10:53:44.502Z,24.59
2019-05-22T10:58:49.524Z,24.06
2019-05-22T11:03:54.991Z,25.66
2019-05-22T11:09:00.142Z,24.60
2019-05-22T11:14:09.513Z,23.45
2019-05-22T11:19:14.228Z,24.08
2019-05-22T11:24:19.622Z,24.33
2019-05-22T11:29:24.723Z,24.38
2019-05-22T11:34:29.902Z,24.44
2019-05-22T11:39:39.240Z,21.23
2019-05-22T11:44:42.262Z,20.66
2019-05-22T11:49:47.208Z,20.63
2019-05-22T11:54:52.218Z,20.89
2019-05-22T11:59:57.022Z,21.27
2019-05-22T12:05:02.932Z,23.08
2019-05-22T12:10:09.179Z,23.68
2019-05-22T12:15:16.121Z,22.97
2019-05-22T12:20:23.050Z,24.32
2019-05-22T12:25:29.031Z,25.18
2019-05-22T12:30:34.135Z,25.41
2019-05-22T12:35:41.539Z,26.20
2019-05-22T12:40:46.751Z,25.27
2019-05-22T12:45:51.831Z,24.41
2019-05-22T12:50:58.273Z,25.39
2019-05-22T12:56:03.801Z,24.73
2019-05-22T13:01:09.106Z,23.91
2019-05-22T13:06:14.628Z,23.27
2019-05-22T13:11:19.969Z,23.27
2019-05-22T13:16:25.086Z,22.95
2019-05-22T13:21:34.302Z,22.83
2019-05-22T13:26:40.877Z,23.07
2019-05-22T13:31:48.574Z,22.72
2019-05-22T13:36:56.807Z,23.58
2019-05-22T13:42:00.718Z,24.07
2019-05-22T13:47:07.753Z,24.88
2019-05-22T13:52:13.001Z,24.83
2019-05-22T13:57:18.162Z,25.26
2019-05-22T14:02:27.164Z,24.65
2019-05-22T14:07:31.381Z,24.40
2019-05-22T14:12:37.236Z,25.22
2019-05-22T14:17:42.790Z,25.01
2019-05-22T14:22:47.832Z,23.87
2019-05-22T14:27:52.921Z,22.93
2019-05-22T14:33:04.398Z,22.66
2019-05-22T14:38:08.567Z,22.98
2019-05-22T14:43:13.582Z,21.50
2019-05-22T14:48:18.865Z,20.63
2019-05-22T14:53:23.764Z,20.25
2019-05-22T14:58:29.262Z,20.15
2019-05-22T15:03:34.357Z,20.60
2019-05-22T15:08:39.353Z,20.15
2019-05-22T15:13:44.599Z,19.26
2019-05-22T15:18:49.794Z,18.44
2019-05-22T15:23:55.391Z,18.95
2019-05-22T15:29:00.556Z,19.70
2019-05-22T15:34:06.154Z,19.53
2019-05-22T15:39:12.703Z,19.38
2019-05-22T15:44:19.595Z,19.31
2019-05-22T15:49:26.339Z,18.65
2019-05-22T15:54:33.983Z,18.64
2019-05-22T15:59:40.570Z,18.34
2019-05-22T16:04:45.441Z,18.76
2019-05-22T16:09:52.063Z,19.53
2019-05-22T16:14:59.227Z,19.27
2019-05-22T16:20:05.241Z,18.86
2019-05-22T16:25:11.073Z,18.93
2019-05-22T16:30:16.603Z,19.36
2019-05-22T16:35:22.132Z,19.18
2019-05-22T16:40:28.148Z,18.98
2019-05-22T16:45:35.004Z,18.96
2019-05-22T16:50:42.934Z,18.44
2019-05-22T16:55:48.358Z,18.10
2019-05-22T17:00:56.991Z,18.07
2019-05-22T17:06:02.139Z,17.76
2019-05-22T17:11:08.234Z,17.04
2019-05-22T17:16:13.629Z,16.75
2019-05-22T17:21:19.451Z,16.81
2019-05-22T17:26:24.583Z,16.99
2019-05-22T17:31:30.259Z,17.31
2019-05-22T17:36:35.958Z,17.48
2019-05-22T17:41:42.739Z,17.51
2019-05-22T17:46:48.802Z,17.32
2019-05-22T17:51:54.098Z,17.77
2019-05-22T17:56:59.230Z,17.45
2019-05-22T18:02:05.744Z,17.37
2019-05-22T18:07:10.837Z,16.98
2019-05-22T18:12:16.190Z,16.56
2019-05-22T18:17:21.708Z,16.53
2019-05-22T18:22:27.151Z,16.39
2019-05-22T18:27:32.690Z,16.37
2019-05-22T18:32:42.046Z,16.07
2019-05-22T18:37:47.147Z,15.93
2019-05-22T18:42:52.406Z,15.79
2019-05-22T18:47:57.644Z,15.69
2019-05-22T18:53:03.425Z,15.80
2019-05-22T18:58:08.435Z,15.85
2019-05-22T19:03:14.459Z,16.00
2019-05-22T19:08:19.835Z,15.82
2019-05-22T19:13:24.823Z,15.73
2019-05-22T19:18:29.734Z,15.58
2019-05-22T19:23:34.890Z,15.42
2019-05-22T19:28:44.074Z,15.18
2019-05-22T19:33:47.252Z,14.93
2019-05-22T19:38:52.582Z,14.71
2019-05-22T19:43:57.766Z,14.57
2019-05-22T19:49:03.088Z,14.34
2019-05-22T19:54:08.459Z,13.94
2019-05-22T19:59:13.766Z,13.77
2019-05-22T20:04:19.215Z,13.24
2019-05-22T20:09:25.675Z,12.83
2019-05-22T20:14:31.383Z,12.37
2019-05-22T20:19:36.547Z,12.17
2019-05-22T20:24:41.742Z,12.26
2019-05-22T20:29:47.575Z,12.26
2019-05-22T20:34:52.663Z,12.14
2019-05-22T20:39:57.506Z,11.63
2019-05-22T20:45:05.202Z,11.47
2019-05-22T20:50:11.565Z,11.34
2019-05-22T20:55:16.555Z,11.40
2019-05-22T21:00:22.225Z,11.42
2019-05-22T21:05:27.166Z,11.24
2019-05-22T21:10:33.667Z,11.04
2019-05-22T21:15:38.983Z,10.87
2019-05-22T21:20:54.565Z,10.55
2019-05-22T21:25:52.535Z,10.60
2019-05-22T21:30:57.922Z,10.63
2019-05-22T21:36:03.695Z,10.74
2019-05-22T21:41:09.706Z,10.98
2019-05-22T21:46:16.026Z,11.13
2019-05-22T21:51:22.023Z,11.05
2019-05-22T21:56:27.725Z,11.14
2019-05-22T22:01:36.507Z,11.00
2019-05-22T22:06:42.224Z,10.97
2019-05-22T22:11:47.558Z,11.15
2019-05-22T22:16:52.319Z,11.23
2019-05-22T22:21:57.294Z,11.13
2019-05-22T22:27:02.765Z,11.12
2019-05-22T22:32:11.385Z,11.06
2019-05-22T22:37:17.772Z,11.24
2019-05-22T22:42:26.725Z,11.29
2019-05-22T22:47:42.268Z,10.95
2019-05-22T22:52:48.786Z,10.64
2019-05-22T22:57:53.600Z,10.66
2019-05-22T23:03:00.245Z,10.60
2019-05-22T23:08:06.149Z,10.54
2019-05-22T23:13:11.205Z,10.33
2019-05-22T23:18:33.165Z,10.39
2019-05-22T23:23:36.230Z,10.25
2019-05-22T23:28:44.003Z,10.28
2019-05-22T23:33:50.088Z,10.22
2019-05-22T23:38:55.472Z,10.01
2019-05-22T23:44:01.006Z,10.11
2019-05-22T23:49:06.637Z,10.12
2019-05-22T23:54:13.031Z,9.74
2019-05-22T23:59:19.728Z,9.85
